Bayou Rouge, Louisiana
Current Conditions -  °F | °C
As of 8:35 AM on Thursday 29 Jan 2015 (Local Time) from KHZR Reporting Station
Overcast Overcast  
Wind Chill: 53°   Ceiling: 2000
Heat Index: 53°   Visibility: 7mi
Dew Point: 51°   Wind: 3mph
Humidity: 94%   Direction: 120°ESE
Pressure: 30.24"   Gusts: NA
Location:  30.6648°N, 91.7944°W
Report Text: KHZR 291435Z AUTO 12003KT 7SM OVC020 12/11 A3024 RMK AO2 T01150105
Loading
Personal Weather Stations






























Interactive Weather Map New forecast layout! Learn more

10-Day Weather Forecast

Advertisements
Track Severe Weather on mobile